Time;durP1;ratioP1;P1;durP2;ratioP2;P2;SDS_P1;SDS_P2;PMS_P1;PMS_P2;Temp;Humidity;BMP_temperature;BMP_pressure;BME280_temperature;BME280_humidity;BME280_pressure;Samples;Min_cycle;Max_cycle;Signal;HPM_P1;HPM_P2
2022/05/17 00:01:40;;;;;;;6.70;3.15;;;19.70;96.70;;;;;;5066338;28;20171;-85
2022/05/17 00:04:11;;;;;;;6.57;3.45;;;19.80;96.70;;;;;;5049507;28;20083;-85
2022/05/17 00:06:39;;;;;;;8.45;3.40;;;19.80;96.70;;;;;;5066231;28;20131;-85
2022/05/17 00:09:07;;;;;;;6.68;3.40;;;19.80;96.70;;;;;;5037451;28;20664;-85
2022/05/17 00:11:37;;;;;;;9.60;3.15;;;19.80;96.70;;;;;;5048946;28;21753;-85
2022/05/17 00:14:05;;;;;;;8.68;2.72;;;19.70;96.70;;;;;;5057567;28;20040;-85
2022/05/17 00:16:33;;;;;;;6.43;3.25;;;19.70;96.70;;;;;;5064304;28;20048;-85
2022/05/17 00:19:01;;;;;;;10.73;3.72;;;19.80;96.70;;;;;;5065616;28;20045;-85
2022/05/17 00:21:31;;;;;;;6.38;3.13;;;19.80;96.70;;;;;;5045256;28;20049;-85
2022/05/17 00:23:59;;;;;;;7.55;3.15;;;19.60;96.70;;;;;;5042538;28;20403;-85
2022/05/17 00:26:27;;;;;;;6.20;3.15;;;19.60;96.70;;;;;;5046745;28;20115;-85
2022/05/17 00:28:58;;;;;;;6.35;3.28;;;19.60;96.70;;;;;;5056838;28;20040;-90
2022/05/17 00:31:26;;;;;;;7.90;3.67;;;19.70;96.70;;;;;;5058900;28;20491;-87
2022/05/17 00:33:54;;;;;;;7.40;3.33;;;19.70;96.70;;;;;;5054279;28;20045;-89
2022/05/17 00:36:22;;;;;;;6.20;2.80;;;19.60;96.70;;;;;;5058126;28;20524;-88
2022/05/17 00:38:52;;;;;;;5.10;2.85;;;19.50;96.70;;;;;;5060770;28;20147;-89
2022/05/17 00:41:22;;;;;;;6.82;3.20;;;19.60;96.70;;;;;;5062382;28;20051;-90
2022/05/17 00:46:54;;;;;;;6.50;3.33;;;19.50;96.70;;;;;;5059224;28;20056;-89
2022/05/17 00:49:26;;;;;;;7.45;3.25;;;19.50;96.70;;;;;;5046558;28;20041;-88
2022/05/17 00:52:00;;;;;;;7.75;3.15;;;19.50;96.70;;;;;;5063898;28;20076;-90
2022/05/17 00:54:30;;;;;;;8.25;3.10;;;19.50;96.70;;;;;;5062163;28;20048;-89
2022/05/17 00:57:04;;;;;;;7.15;3.33;;;19.40;96.70;;;;;;5068987;28;20032;-89
2022/05/17 00:59:34;;;;;;;7.10;3.10;;;19.30;96.70;;;;;;5053820;28;20056;-90
2022/05/17 01:02:02;;;;;;;6.38;2.92;;;19.30;96.70;;;;;;5069970;28;20040;-90
2022/05/17 01:04:30;;;;;;;7.97;3.40;;;19.40;96.70;;;;;;5065319;28;20048;-88
2022/05/17 01:07:01;;;;;;;7.07;3.40;;;19.40;96.70;;;;;;5063466;28;20041;-87
2022/05/17 01:09:31;;;;;;;9.07;3.55;;;19.40;96.70;;;;;;5069791;28;20040;-90
2022/05/17 01:11:59;;;;;;;7.78;2.90;;;19.30;96.70;;;;;;5061710;28;20491;-89
2022/05/17 01:17:14;;;;;;;7.72;3.10;;;19.20;96.70;;;;;;5055335;28;20140;-91
2022/05/17 01:19:43;;;;;;;7.00;3.10;;;19.10;96.70;;;;;;5064175;28;20044;-90
2022/05/17 01:22:13;;;;;;;5.72;3.30;;;19.20;96.70;;;;;;5058765;28;20073;-88
2022/05/17 01:24:41;;;;;;;7.70;3.10;;;19.20;96.70;;;;;;5056408;28;20129;-90
2022/05/17 01:27:13;;;;;;;5.85;2.65;;;19.00;96.70;;;;;;5067711;28;20057;-90
2022/05/17 01:29:45;;;;;;;5.07;2.63;;;19.00;96.70;;;;;;5044209;28;20048;-90
2022/05/17 01:32:15;;;;;;;6.35;3.20;;;19.00;96.70;;;;;;5066951;28;20055;-90
2022/05/17 01:34:44;;;;;;;6.97;3.33;;;19.00;96.70;;;;;;5064911;28;20033;-89
2022/05/17 01:37:14;;;;;;;6.97;3.30;;;18.90;96.70;;;;;;5053556;28;20065;-90
2022/05/17 01:39:48;;;;;;;6.50;3.30;;;18.90;96.70;;;;;;5055319;28;20565;-89
2022/05/17 01:42:16;;;;;;;7.30;3.42;;;18.90;96.70;;;;;;5060384;28;20059;-90
2022/05/17 01:44:45;;;;;;;9.80;3.70;;;18.80;96.70;;;;;;5057070;28;20045;-90
2022/05/17 01:47:13;;;;;;;7.63;3.60;;;18.80;96.70;;;;;;5068926;28;20063;-89
2022/05/17 01:49:43;;;;;;;6.30;3.55;;;18.80;96.70;;;;;;5052872;28;20143;-90
2022/05/17 01:52:13;;;;;;;6.03;3.65;;;18.80;96.70;;;;;;5061035;28;20040;-89
2022/05/17 01:54:41;;;;;;;6.03;3.28;;;18.80;96.70;;;;;;5060112;28;20696;-90
2022/05/17 01:57:09;;;;;;;9.05;3.40;;;18.80;96.70;;;;;;5051829;28;20040;-90
2022/05/17 01:59:37;;;;;;;7.13;3.38;;;18.60;96.70;;;;;;5061073;28;20144;-90
2022/05/17 02:02:06;;;;;;;6.28;3.30;;;18.50;96.70;;;;;;5049394;28;20194;-89
2022/05/17 02:04:34;;;;;;;8.73;3.70;;;18.50;96.70;;;;;;5062515;28;20049;-90
2022/05/17 02:07:03;;;;;;;8.23;3.30;;;18.60;96.70;;;;;;5052598;28;20044;-91
2022/05/17 02:09:32;;;;;;;8.77;3.15;;;18.60;96.70;;;;;;5057974;28;20051;-90
2022/05/17 02:12:01;;;;;;;6.30;3.30;;;18.60;96.70;;;;;;5065473;28;20132;-88
2022/05/17 02:14:29;;;;;;;6.88;3.63;;;18.50;96.70;;;;;;5057907;28;20098;-89
2022/05/17 02:16:59;;;;;;;8.90;3.80;;;18.50;96.70;;;;;;5067765;28;20094;-89
2022/05/17 02:19:30;;;;;;;7.75;3.63;;;18.60;96.70;;;;;;5060915;28;20048;-89
2022/05/17 02:21:58;;;;;;;7.38;3.20;;;18.60;96.70;;;;;;5064143;28;20049;-89
2022/05/17 02:24:27;;;;;;;6.63;3.17;;;18.50;96.70;;;;;;5042488;28;20062;-89
2022/05/17 02:26:57;;;;;;;11.25;3.95;;;18.50;96.70;;;;;;5066493;28;20044;-89
2022/05/17 02:29:28;;;;;;;5.03;3.80;;;18.40;96.70;;;;;;5061087;28;20050;-90
2022/05/17 02:31:56;;;;;;;6.18;3.42;;;18.40;96.70;;;;;;5068362;28;20167;-90
2022/05/17 02:34:25;;;;;;;6.70;3.22;;;18.40;96.70;;;;;;5057754;28;20523;-87
2022/05/17 02:36:55;;;;;;;7.28;3.63;;;18.50;96.70;;;;;;5066725;28;20040;-90
2022/05/17 02:39:22;;;;;;;5.97;3.03;;;18.40;96.70;;;;;;5068644;28;20048;-89
2022/05/17 02:41:50;;;;;;;6.93;3.53;;;18.30;96.70;;;;;;5064641;28;20049;-89
2022/05/17 02:44:20;;;;;;;8.45;3.70;;;18.30;96.70;;;;;;5060560;28;20049;-87
2022/05/17 02:46:48;;;;;;;6.32;3.53;;;18.40;96.70;;;;;;5065765;28;20061;-89
2022/05/17 02:49:16;;;;;;;7.40;2.90;;;18.40;96.70;;;;;;5063293;28;20052;-88
2022/05/17 02:51:44;;;;;;;6.78;3.28;;;18.30;96.70;;;;;;5063449;28;20056;-87
2022/05/17 02:54:12;;;;;;;5.70;3.45;;;18.30;96.70;;;;;;5057469;28;20048;-87
2022/05/17 02:56:40;;;;;;;6.60;3.40;;;18.30;96.70;;;;;;5063143;28;20052;-91
2022/05/17 02:59:08;;;;;;;6.25;3.10;;;18.20;96.70;;;;;;5063225;28;20059;-88
2022/05/17 03:01:38;;;;;;;7.43;3.40;;;18.20;96.70;;;;;;5057169;28;20041;-89
2022/05/17 03:04:06;;;;;;;7.03;3.22;;;18.20;96.70;;;;;;5068014;28;20097;-87
2022/05/17 03:06:34;;;;;;;6.43;3.17;;;18.10;96.70;;;;;;5059096;28;20041;-89
2022/05/17 03:09:02;;;;;;;5.85;2.50;;;18.10;96.70;;;;;;5054202;28;20581;-89
2022/05/17 03:11:32;;;;;;;7.20;3.47;;;18.10;96.70;;;;;;5061599;28;20048;-89
2022/05/17 03:14:03;;;;;;;5.80;2.47;;;18.20;96.70;;;;;;5044278;28;20083;-84
2022/05/17 03:16:31;;;;;;;7.15;2.90;;;18.10;96.70;;;;;;5043480;28;20037;-83
2022/05/17 03:19:02;;;;;;;7.93;3.10;;;18.00;96.70;;;;;;5068333;28;20068;-84
2022/05/17 03:21:30;;;;;;;5.55;2.88;;;18.00;96.70;;;;;;5058474;28;20055;-84
2022/05/17 03:23:58;;;;;;;5.03;2.80;;;17.90;96.70;;;;;;5041322;28;20040;-84
2022/05/17 03:26:26;;;;;;;5.68;2.80;;;17.80;96.70;;;;;;5061460;28;20102;-84
2022/05/17 03:28:54;;;;;;;7.50;3.15;;;17.80;96.70;;;;;;5064079;28;20498;-83
2022/05/17 03:31:23;;;;;;;4.28;2.60;;;17.90;96.70;;;;;;5060030;28;20054;-88
2022/05/17 03:33:51;;;;;;;5.55;2.70;;;17.90;96.70;;;;;;5051435;28;20046;-89
2022/05/17 03:36:21;;;;;;;4.55;2.25;;;17.90;96.70;;;;;;5049648;28;20048;-88
2022/05/17 03:38:49;;;;;;;6.25;3.00;;;17.80;96.70;;;;;;5066711;28;20045;-89
2022/05/17 03:41:17;;;;;;;5.35;2.83;;;17.90;96.70;;;;;;5064145;28;20052;-86
2022/05/17 03:43:46;;;;;;;5.60;2.78;;;18.00;96.70;;;;;;5055087;28;20105;-88
2022/05/17 03:46:14;;;;;;;4.18;2.72;;;17.90;96.70;;;;;;5067887;28;20605;-89
2022/05/17 03:48:42;;;;;;;5.90;3.00;;;17.80;96.70;;;;;;5065435;28;20044;-88
2022/05/17 03:51:12;;;;;;;6.22;3.30;;;17.70;96.70;;;;;;5067863;28;20041;-87
2022/05/17 03:53:42;;;;;;;5.53;2.72;;;17.80;96.70;;;;;;5059207;28;20306;-86
2022/05/17 03:56:11;;;;;;;5.82;2.88;;;17.80;96.70;;;;;;5066120;28;20095;-89
2022/05/17 03:58:39;;;;;;;7.53;3.60;;;17.90;96.70;;;;;;5048472;28;20091;-87
2022/05/17 04:01:07;;;;;;;11.50;4.28;;;17.90;96.70;;;;;;5066705;28;20080;-87
2022/05/17 04:03:35;;;;;;;7.30;3.70;;;17.90;96.70;;;;;;5065518;28;20068;-87
2022/05/17 04:06:04;;;;;;;7.45;3.47;;;17.90;96.70;;;;;;5061309;28;20040;-89
2022/05/17 04:08:32;;;;;;;7.32;3.55;;;18.00;96.70;;;;;;5065793;28;20087;-89
2022/05/17 04:11:02;;;;;;;7.18;3.65;;;18.00;96.70;;;;;;5069391;28;20086;-90
2022/05/17 04:13:31;;;;;;;9.18;3.63;;;17.90;96.70;;;;;;5059307;28;20068;-87
2022/05/17 04:16:00;;;;;;;7.10;3.53;;;17.80;96.70;;;;;;5061723;28;20162;-89
2022/05/17 04:18:29;;;;;;;8.77;3.45;;;17.70;96.70;;;;;;5065540;28;20068;-89
2022/05/17 04:20:58;;;;;;;7.85;3.35;;;17.80;96.70;;;;;;5068970;28;20049;-90
2022/05/17 04:23:27;;;;;;;7.72;3.35;;;17.80;96.70;;;;;;5065450;28;20063;-88
2022/05/17 04:25:55;;;;;;;5.30;3.42;;;17.80;96.70;;;;;;5053287;28;20430;-90
2022/05/17 04:28:25;;;;;;;6.88;3.58;;;17.80;96.70;;;;;;5062157;28;20075;-90
2022/05/17 04:30:53;;;;;;;8.30;3.15;;;17.80;96.70;;;;;;5069903;28;20041;-87
2022/05/17 04:33:21;;;;;;;5.88;3.22;;;17.70;96.70;;;;;;5069250;28;20040;-86
2022/05/17 04:35:49;;;;;;;4.68;3.25;;;17.60;96.70;;;;;;5052795;28;20047;-87
2022/05/17 04:38:17;;;;;;;8.63;3.70;;;17.50;96.70;;;;;;5061088;28;20052;-86
2022/05/17 04:40:46;;;;;;;6.20;3.03;;;17.50;96.70;;;;;;5068146;28;20075;-87
2022/05/17 04:43:14;;;;;;;5.70;3.08;;;17.50;96.70;;;;;;5069958;28;20110;-87
2022/05/17 04:45:45;;;;;;;4.78;2.70;;;17.50;96.70;;;;;;5070546;28;20056;-88
2022/05/17 04:48:13;;;;;;;6.75;3.40;;;17.50;96.70;;;;;;5061951;28;20143;-88
2022/05/17 04:50:41;;;;;;;5.30;3.53;;;17.40;96.70;;;;;;5067227;28;20048;-87
2022/05/17 04:53:09;;;;;;;8.73;3.88;;;17.50;96.70;;;;;;5064859;28;20116;-87
2022/05/17 04:55:37;;;;;;;7.63;3.35;;;17.60;96.70;;;;;;5053672;28;20514;-86
2022/05/17 04:58:05;;;;;;;6.70;3.05;;;17.70;96.70;;;;;;5060214;28;20136;-86
2022/05/17 05:00:33;;;;;;;7.22;3.72;;;17.70;96.70;;;;;;5069849;28;20518;-87
2022/05/17 05:03:04;;;;;;;5.63;3.42;;;17.80;96.70;;;;;;5070034;28;20040;-88
2022/05/17 05:05:33;;;;;;;9.55;3.40;;;17.90;96.70;;;;;;5063964;28;20052;-86
2022/05/17 05:08:01;;;;;;;6.70;3.25;;;17.90;96.70;;;;;;5063673;28;20514;-88
2022/05/17 05:10:29;;;;;;;5.80;3.20;;;17.90;96.70;;;;;;5057229;28;20063;-87
2022/05/17 05:12:57;;;;;;;6.88;3.80;;;17.80;96.70;;;;;;5064351;28;20040;-87
2022/05/17 05:15:25;;;;;;;5.07;3.08;;;17.80;96.70;;;;;;5069144;28;20498;-87
2022/05/17 05:17:53;;;;;;;13.27;4.10;;;18.00;96.70;;;;;;5066804;28;20499;-88
2022/05/17 05:20:23;;;;;;;8.13;3.40;;;18.00;96.70;;;;;;5070331;28;20044;-88
2022/05/17 05:22:51;;;;;;;11.32;3.75;;;18.00;96.70;;;;;;5068861;28;20037;-88
2022/05/17 05:25:19;;;;;;;5.88;3.42;;;18.00;96.70;;;;;;5051081;28;20055;-87
2022/05/17 05:27:48;;;;;;;7.70;3.47;;;18.00;96.70;;;;;;5052503;28;20060;-86
2022/05/17 05:30:17;;;;;;;7.80;4.07;;;18.00;96.70;;;;;;5062361;28;20079;-86
2022/05/17 05:32:46;;;;;;;5.43;3.42;;;18.00;96.70;;;;;;5039987;28;20052;-87
2022/05/17 05:35:16;;;;;;;7.20;3.97;;;18.10;96.70;;;;;;5057900;28;20060;-88
2022/05/17 05:37:47;;;;;;;7.95;3.90;;;18.10;96.70;;;;;;5064763;28;20637;-88
2022/05/17 05:40:15;;;;;;;6.32;4.10;;;18.20;96.70;;;;;;5045888;28;20131;-87
2022/05/17 05:42:44;;;;;;;8.80;4.18;;;18.20;96.70;;;;;;5069575;28;20042;-88
2022/05/17 05:45:13;;;;;;;7.85;4.30;;;18.20;96.70;;;;;;5058597;28;20060;-88
2022/05/17 05:47:42;;;;;;;8.32;3.95;;;18.20;96.70;;;;;;5067589;28;20037;-87
2022/05/17 05:50:11;;;;;;;6.70;4.00;;;18.30;96.70;;;;;;5069013;28;20048;-88
2022/05/17 05:52:39;;;;;;;8.77;4.93;;;18.30;96.70;;;;;;5044765;28;20048;-86
2022/05/17 05:55:18;;;;;;;13.35;4.72;;;18.50;96.70;;;;;;5061970;28;20053;-86
2022/05/17 05:57:47;;;;;;;8.45;4.53;;;18.40;96.70;;;;;;5061891;28;20053;-88
2022/05/17 06:00:17;;;;;;;8.50;4.80;;;18.40;96.70;;;;;;5050652;28;20135;-86
2022/05/17 06:02:46;;;;;;;9.88;4.40;;;18.50;96.70;;;;;;5058525;28;20057;-88
2022/05/17 06:05:15;;;;;;;11.57;5.53;;;18.60;96.70;;;;;;5063061;28;20065;-88
2022/05/17 06:07:43;;;;;;;7.57;4.93;;;18.70;96.70;;;;;;5068412;28;20067;-87
2022/05/17 06:10:14;;;;;;;7.97;4.60;;;18.70;96.70;;;;;;5063015;28;20037;-86
2022/05/17 06:12:42;;;;;;;9.43;5.65;;;18.70;96.70;;;;;;5066102;28;20040;-88
2022/05/17 06:15:13;;;;;;;9.93;4.97;;;18.70;96.70;;;;;;5054494;28;20045;-88
2022/05/17 06:17:49;;;;;;;6.57;4.75;;;18.80;96.70;;;;;;5061186;28;20060;-88
2022/05/17 06:20:17;;;;;;;9.23;5.25;;;18.80;96.70;;;;;;5065734;28;20052;-86
2022/05/17 06:22:45;;;;;;;12.77;5.05;;;18.80;96.70;;;;;;5067716;28;20043;-89
2022/05/17 06:25:16;;;;;;;10.75;5.07;;;18.80;96.70;;;;;;5061569;28;20505;-89
2022/05/17 06:27:45;;;;;;;11.55;5.35;;;18.80;96.70;;;;;;5064055;28;20200;-86
2022/05/17 06:30:14;;;;;;;12.77;5.68;;;18.70;96.70;;;;;;5061699;28;20045;-85
2022/05/17 06:32:43;;;;;;;9.75;5.20;;;18.80;96.70;;;;;;5059859;28;20066;-85
2022/05/17 06:35:12;;;;;;;10.07;5.90;;;19.00;96.70;;;;;;5050992;28;20040;-84
2022/05/17 06:37:41;;;;;;;11.93;5.07;;;19.00;96.70;;;;;;5049484;28;20528;-85
2022/05/17 06:40:11;;;;;;;7.85;4.97;;;19.10;96.70;;;;;;5063150;28;20074;-85
2022/05/17 06:42:41;;;;;;;8.65;5.25;;;19.20;96.70;;;;;;5065102;28;20040;-84
2022/05/17 06:45:11;;;;;;;8.10;5.63;;;19.30;96.70;;;;;;5065312;28;20120;-85
2022/05/17 06:47:40;;;;;;;11.52;5.32;;;19.30;96.70;;;;;;5062684;28;20490;-84
2022/05/17 06:50:10;;;;;;;9.75;4.60;;;19.30;96.70;;;;;;5066228;28;20708;-85
2022/05/17 06:52:38;;;;;;;8.60;5.07;;;19.30;96.70;;;;;;5055529;28;20068;-85
2022/05/17 06:55:07;;;;;;;9.70;5.13;;;19.40;96.70;;;;;;5042516;28;20045;-85
2022/05/17 06:57:36;;;;;;;13.85;5.18;;;19.50;96.70;;;;;;5061736;28;20048;-83
2022/05/17 07:00:08;;;;;;;7.45;5.05;;;19.60;96.70;;;;;;5051146;28;20763;-83
2022/05/17 07:02:36;;;;;;;9.90;5.15;;;19.60;96.70;;;;;;5062693;28;20044;-83
2022/05/17 07:05:05;;;;;;;10.70;5.00;;;19.60;96.70;;;;;;5044474;28;20087;-83
2022/05/17 07:07:37;;;;;;;11.50;6.20;;;19.60;96.70;;;;;;5049035;28;20048;-83
2022/05/17 07:13:09;;;;;;;8.57;5.40;;;19.70;96.70;;;;;;5064981;28;20082;-86
2022/05/17 07:15:41;;;;;;;13.02;5.57;;;19.80;96.70;;;;;;5068227;28;20048;-86
2022/05/17 07:18:11;;;;;;;12.30;5.65;;;19.90;96.70;;;;;;5061651;28;20049;-87
2022/05/17 07:20:40;;;;;;;13.43;6.00;;;19.90;96.70;;;;;;5062148;28;20048;-84
2022/05/17 07:23:09;;;;;;;13.38;5.55;;;20.00;96.70;;;;;;5057371;28;20623;-87
2022/05/17 07:25:41;;;;;;;9.63;5.20;;;20.00;96.70;;;;;;5040419;28;20044;-80
2022/05/17 07:28:12;;;;;;;13.27;4.57;;;20.00;96.70;;;;;;5059877;28;20078;-84
2022/05/17 07:30:42;;;;;;;8.93;4.75;;;20.10;96.70;;;;;;5057645;28;20598;-84
2022/05/17 07:33:10;;;;;;;9.05;4.93;;;20.20;96.70;;;;;;5053435;28;20708;-85
2022/05/17 07:35:38;;;;;;;12.90;5.68;;;20.20;96.70;;;;;;5065969;28;20052;-84
2022/05/17 07:38:07;;;;;;;13.23;4.95;;;20.30;96.70;;;;;;5060022;28;20049;-85
2022/05/17 07:40:36;;;;;;;13.32;5.65;;;20.30;96.70;;;;;;5058174;28;20556;-86
2022/05/17 07:43:04;;;;;;;12.32;5.00;;;20.40;96.70;;;;;;5058262;28;20049;-85
2022/05/17 07:45:36;;;;;;;12.13;5.65;;;20.50;96.70;;;;;;5065749;28;20063;-85
2022/05/17 07:48:06;;;;;;;13.32;6.60;;;20.50;96.70;;;;;;5065994;28;20118;-85
2022/05/17 07:50:34;;;;;;;10.35;6.35;;;20.50;96.70;;;;;;5060429;28;20044;-86
2022/05/17 07:53:07;;;;;;;11.82;5.50;;;20.50;96.70;;;;;;5067645;28;20064;-86
2022/05/17 07:55:36;;;;;;;14.70;6.40;;;20.60;96.70;;;;;;5059991;28;20848;-86
2022/05/17 07:58:05;;;;;;;11.93;5.93;;;20.70;96.70;;;;;;5049601;28;20036;-85
2022/05/17 08:00:33;;;;;;;10.23;5.38;;;20.80;96.70;;;;;;5062743;28;20052;-86
2022/05/17 08:03:04;;;;;;;7.90;4.80;;;20.80;96.70;;;;;;5049652;28;20053;-86
2022/05/17 08:05:34;;;;;;;14.43;5.35;;;20.90;96.70;;;;;;5061629;28;20049;-84
2022/05/17 08:08:02;;;;;;;10.38;4.95;;;21.00;96.70;;;;;;5061362;28;20563;-86
2022/05/17 08:10:31;;;;;;;8.95;5.45;;;21.00;96.70;;;;;;5047909;28;20045;-85
2022/05/17 08:12:59;;;;;;;11.57;5.07;;;21.10;96.70;;;;;;5066789;28;20066;-85
2022/05/17 08:15:28;;;;;;;8.30;4.47;;;21.10;96.70;;;;;;5065287;28;20036;-85
2022/05/17 08:18:01;;;;;;;8.10;4.78;;;21.10;96.70;;;;;;5066045;28;20049;-86
2022/05/17 08:20:30;;;;;;;9.73;5.30;;;21.20;96.70;;;;;;5060471;28;20052;-81
2022/05/17 08:23:01;;;;;;;11.93;5.15;;;21.20;96.70;;;;;;5056919;28;20047;-84
2022/05/17 08:28:15;;;;;;;10.80;4.63;;;21.30;96.70;;;;;;5057329;28;20041;-82
2022/05/17 08:30:45;;;;;;;11.52;5.10;;;21.40;96.70;;;;;;5064675;28;20094;-82
2022/05/17 08:33:15;;;;;;;11.85;5.35;;;21.50;96.70;;;;;;5048901;28;20045;-80
2022/05/17 08:36:00;;;;;;;12.10;5.32;;;21.50;96.70;;;;;;5058986;28;20048;-82
2022/05/17 08:38:32;;;;;;;13.90;5.65;;;21.50;96.70;;;;;;5065698;28;20071;-81
2022/05/17 08:41:24;;;;;;;14.23;5.45;;;21.50;96.70;;;;;;5058572;28;20051;-82
2022/05/17 08:43:55;;;;;;;13.18;4.80;;;21.70;96.70;;;;;;5042645;28;20057;-81
2022/05/17 08:46:30;;;;;;;13.95;4.70;;;21.70;96.70;;;;;;5048907;28;20060;-80
2022/05/17 08:49:12;;;;;;;10.45;4.75;;;21.80;96.70;;;;;;5061195;28;20049;-78
2022/05/17 08:51:44;;;;;;;7.38;3.70;;;21.90;96.70;;;;;;5046919;28;20044;-80
2022/05/17 08:54:17;;;;;;;7.65;4.00;;;22.00;96.70;;;;;;5050137;28;20045;-81
2022/05/17 08:56:50;;;;;;;7.43;3.83;;;22.10;96.70;;;;;;5062306;28;20063;-80
2022/05/17 08:59:23;;;;;;;9.20;3.78;;;22.20;96.70;;;;;;5050110;28;20135;-79
2022/05/17 09:01:59;;;;;;;6.95;3.38;;;22.20;96.70;;;;;;5054820;28;20048;-85
2022/05/17 09:04:48;;;;;;;8.13;3.30;;;22.30;96.70;;;;;;5045766;28;20207;-81
2022/05/17 09:07:23;;;;;;;8.52;2.95;;;22.30;96.70;;;;;;5063814;28;20045;-79
2022/05/17 09:10:03;;;;;;;7.10;3.10;;;22.40;96.70;;;;;;5059336;28;20048;-81
2022/05/17 09:12:42;;;;;;;11.45;3.85;;;22.50;96.70;;;;;;5064616;28;20045;-84
2022/05/17 09:15:13;;;;;;;9.10;3.28;;;22.60;96.70;;;;;;5060292;28;20155;-83
2022/05/17 09:17:42;;;;;;;9.77;3.28;;;22.60;96.70;;;;;;5064820;28;20150;-85
2022/05/17 09:20:15;;;;;;;8.30;3.13;;;22.70;96.70;;;;;;5057556;28;20052;-86
2022/05/17 09:22:44;;;;;;;7.20;2.80;;;22.80;96.70;;;;;;5041968;28;20056;-82
2022/05/17 09:25:17;;;;;;;12.15;4.00;;;22.80;96.70;;;;;;5054716;28;20064;-87
2022/05/17 09:27:48;;;;;;;7.70;2.70;;;22.90;96.70;;;;;;5062908;28;20048;-87
2022/05/17 09:30:30;;;;;;;7.65;3.20;;;22.90;96.70;;;;;;5064832;28;20144;-86
2022/05/17 09:33:05;;;;;;;7.43;2.72;;;23.00;96.70;;;;;;5067316;28;20048;-85
2022/05/17 09:35:41;;;;;;;9.45;2.83;;;23.00;96.70;;;;;;5043046;28;20747;-88
2022/05/17 09:38:10;;;;;;;7.17;2.70;;;23.00;96.70;;;;;;5044186;28;20164;-86
2022/05/17 09:40:41;;;;;;;6.88;2.40;;;23.10;96.70;;;;;;5051692;28;20629;-84
2022/05/17 09:43:13;;;;;;;7.20;2.78;;;23.30;96.70;;;;;;5048173;28;20047;-88
2022/05/17 09:45:49;;;;;;;6.78;2.63;;;23.40;96.70;;;;;;5052021;28;20147;-87
2022/05/17 09:48:32;;;;;;;6.15;2.53;;;23.40;96.70;;;;;;5050525;28;20072;-84
2022/05/17 09:53:49;;;;;;;6.82;2.90;;;23.50;96.70;;;;;;5068070;28;20110;-88
2022/05/17 09:56:26;;;;;;;6.82;2.83;;;23.50;96.70;;;;;;5057666;28;20220;-90
2022/05/17 09:58:55;;;;;;;8.93;3.28;;;23.60;96.70;;;;;;5053596;28;20045;-89
2022/05/17 10:01:28;;;;;;;9.10;3.47;;;23.70;96.70;;;;;;5059500;28;20090;-88
2022/05/17 10:04:02;;;;;;;7.00;2.80;;;23.80;96.70;;;;;;5058550;28;20110;-88
2022/05/17 10:06:35;;;;;;;8.93;3.70;;;23.90;96.70;;;;;;5043257;28;20052;-87
2022/05/17 10:09:07;;;;;;;6.88;3.20;;;24.00;96.70;;;;;;5066906;28;20044;-86
2022/05/17 10:12:00;;;;;;;5.85;2.78;;;24.00;96.70;;;;;;5060363;28;20044;-86
2022/05/17 10:14:33;;;;;;;6.70;3.03;;;24.10;96.70;;;;;;5051354;28;21116;-88
2022/05/17 10:17:04;;;;;;;6.85;3.15;;;24.30;96.70;;;;;;5063503;28;20045;-89
2022/05/17 10:19:43;;;;;;;7.05;3.05;;;24.30;96.70;;;;;;5054814;28;20639;-90
2022/05/17 10:22:20;;;;;;;8.02;3.25;;;24.50;96.70;;;;;;5065604;28;20049;-89
2022/05/17 10:24:52;;;;;;;11.02;3.47;;;24.60;96.70;;;;;;5051217;28;20537;-86
2022/05/17 10:27:27;;;;;;;7.97;3.95;;;24.80;96.70;;;;;;5058114;28;20048;-84
2022/05/17 10:30:00;;;;;;;8.23;3.60;;;24.80;96.70;;;;;;5063368;28;20806;-86
2022/05/17 10:32:33;;;;;;;8.45;3.60;;;25.00;96.70;;;;;;5067288;28;20518;-87
2022/05/17 10:35:18;;;;;;;7.57;3.03;;;25.00;96.70;;;;;;5044900;28;20049;-85
2022/05/17 10:37:51;;;;;;;9.52;3.42;;;25.00;96.70;;;;;;5046498;28;20044;-86
2022/05/17 10:40:23;;;;;;;8.48;3.30;;;25.10;96.70;;;;;;5061972;28;20055;-86
2022/05/17 10:42:53;;;;;;;11.77;3.38;;;25.20;96.70;;;;;;5036930;28;20071;-89
2022/05/17 10:45:32;;;;;;;8.13;3.50;;;25.30;96.70;;;;;;5067445;28;20106;-86
2022/05/17 10:48:14;;;;;;;8.63;2.97;;;25.40;96.70;;;;;;5050348;28;20065;-86
2022/05/17 10:50:51;;;;;;;8.02;3.55;;;25.50;96.70;;;;;;5060603;28;20103;-86
2022/05/17 10:53:34;;;;;;;8.50;3.78;;;25.60;96.70;;;;;;5045578;28;20135;-89
2022/05/17 10:56:12;;;;;;;11.30;3.00;;;25.70;96.70;;;;;;5067908;28;20043;-89
2022/05/17 10:58:49;;;;;;;9.30;2.70;;;25.80;96.70;;;;;;5063370;28;20041;-85
2022/05/17 11:01:22;;;;;;;10.13;2.58;;;25.80;96.70;;;;;;5061871;28;20655;-89
2022/05/17 11:04:18;;;;;;;9.93;2.85;;;25.90;96.70;;;;;;5047087;28;20331;-88
2022/05/17 11:07:00;;;;;;;8.85;2.70;;;26.00;96.70;;;;;;5055523;28;20099;-89
2022/05/17 11:09:38;;;;;;;5.53;2.17;;;26.00;96.70;;;;;;5064261;28;20159;-87
2022/05/17 11:12:09;;;;;;;8.48;2.33;;;26.10;96.70;;;;;;5066611;28;20047;-87
2022/05/17 11:15:09;;;;;;;7.25;2.53;;;26.20;96.70;;;;;;5064893;28;20056;-87
2022/05/17 11:17:50;;;;;;;7.47;1.80;;;26.30;96.70;;;;;;4989073;28;20058;-85
2022/05/17 11:20:32;;;;;;;6.13;1.98;;;26.30;96.70;;;;;;4989811;28;20061;-87
2022/05/17 11:23:20;;;;;;;7.13;2.28;;;26.50;96.70;;;;;;4970460;28;20153;-84
2022/05/17 11:26:18;;;;;;;5.07;2.40;;;26.60;96.70;;;;;;4989773;28;20086;-87
2022/05/17 11:29:02;;;;;;;9.98;2.65;;;26.60;96.70;;;;;;4974012;28;20137;-87
2022/05/17 11:31:41;;;;;;;6.28;2.38;;;26.70;96.70;;;;;;4989054;28;20062;-87
2022/05/17 11:34:35;;;;;;;5.35;2.28;;;26.70;96.70;;;;;;4989465;28;20049;-84
2022/05/17 11:37:06;;;;;;;8.38;2.55;;;26.80;96.70;;;;;;4987847;28;20046;-87
2022/05/17 11:39:48;;;;;;;9.07;2.83;;;26.90;96.70;;;;;;5004507;28;20045;-85
2022/05/17 11:42:31;;;;;;;7.88;2.42;;;27.00;96.70;;;;;;4985582;28;20057;-88
2022/05/17 11:45:18;;;;;;;6.90;2.40;;;26.90;96.70;;;;;;4989714;28;20185;-87
2022/05/17 11:47:49;;;;;;;9.07;2.50;;;26.90;96.70;;;;;;4989952;28;20054;-85
2022/05/17 11:50:42;;;;;;;5.35;2.42;;;27.10;96.70;;;;;;4989179;28;20101;-86
2022/05/17 11:53:31;;;;;;;9.88;2.58;;;27.30;96.70;;;;;;4982088;28;20086;-85
2022/05/17 11:56:20;;;;;;;6.30;2.47;;;27.50;96.70;;;;;;5047681;28;20581;-86
2022/05/17 11:58:51;;;;;;;7.55;2.50;;;27.50;96.70;;;;;;5077508;28;20060;-86
2022/05/17 12:01:45;;;;;;;8.65;2.50;;;27.50;96.70;;;;;;5063872;28;20048;-85
2022/05/17 12:04:42;;;;;;;7.53;2.55;;;27.40;96.70;;;;;;5051054;28;20097;-86
2022/05/17 12:07:23;;;;;;;5.88;2.38;;;27.30;96.70;;;;;;5059960;28;20067;-86
2022/05/17 12:09:52;;;;;;;6.15;2.20;;;27.50;96.70;;;;;;5062067;28;20052;-85
2022/05/17 12:12:41;;;;;;;4.05;1.65;;;27.50;96.70;;;;;;5056232;28;20121;-85
2022/05/17 12:15:31;;;;;;;7.25;2.20;;;27.60;95.70;;;;;;5053653;28;20048;-85
2022/05/17 12:18:37;;;;;;;8.43;2.03;;;27.70;96.70;;;;;;5050671;28;20048;-86
2022/05/17 12:21:23;;;;;;;3.88;1.90;;;27.80;96.60;;;;;;5064722;28;20300;-88
2022/05/17 12:23:59;;;;;;;8.85;2.00;;;27.70;96.70;;;;;;5045090;28;20583;-87
2022/05/17 12:26:44;;;;;;;5.57;2.10;;;27.80;94.50;;;;;;5063210;28;20053;-87
2022/05/17 12:31:59;;;;;;;4.20;2.47;;;27.80;95.30;;;;;;5061122;28;20055;-86
2022/05/17 12:34:27;;;;;;;6.03;2.05;;;27.80;96.20;;;;;;5044870;28;20099;-86
2022/05/17 12:37:07;;;;;;;7.95;2.28;;;27.90;95.30;;;;;;5067308;28;20552;-86
2022/05/17 12:45:18;;;;;;;7.15;2.10;;;27.90;94.40;;;;;;5062718;28;20036;-86
2022/05/17 12:47:51;;;;;;;8.38;2.20;;;28.00;94.20;;;;;;5069252;28;20117;-86
2022/05/17 12:50:21;;;;;;;8.27;2.30;;;28.20;94.70;;;;;;5069636;28;20047;-86
2022/05/17 12:52:54;;;;;;;5.15;2.05;;;28.00;92.40;;;;;;5063757;28;20056;-86
2022/05/17 12:55:26;;;;;;;5.10;1.65;;;28.00;94.30;;;;;;5034056;28;20075;-88
2022/05/17 12:57:55;;;;;;;5.90;1.90;;;28.00;94.00;;;;;;5058368;28;20070;-86
2022/05/17 13:00:28;;;;;;;7.60;1.92;;;27.70;92.70;;;;;;5063973;28;20051;-87
2022/05/17 13:02:58;;;;;;;7.13;1.77;;;27.90;93.90;;;;;;5060925;28;20899;-84
2022/05/17 13:05:30;;;;;;;8.57;1.95;;;27.90;92.70;;;;;;5062512;28;20080;-86
2022/05/17 13:08:05;;;;;;;9.77;2.63;;;28.10;94.60;;;;;;5060048;28;20049;-86
2022/05/17 13:10:36;;;;;;;7.72;1.98;;;28.20;93.90;;;;;;5059179;28;20075;-86
2022/05/17 13:13:15;;;;;;;4.78;1.70;;;28.30;92.30;;;;;;5059010;28;20510;-86
2022/05/17 13:15:46;;;;;;;6.95;2.17;;;28.30;92.10;;;;;;5052883;28;20052;-87
2022/05/17 13:18:16;;;;;;;5.90;2.15;;;28.40;92.20;;;;;;5051474;28;20056;-86
2022/05/17 13:20:50;;;;;;;8.10;1.92;;;28.50;90.70;;;;;;5046368;28;20640;-87
2022/05/17 13:23:22;;;;;;;6.75;2.03;;;28.60;90.90;;;;;;5039350;28;20056;-84
2022/05/17 13:25:54;;;;;;;8.98;2.40;;;28.60;90.40;;;;;;5051955;28;20107;-87
2022/05/17 13:28:26;;;;;;;6.20;2.13;;;28.60;89.40;;;;;;5064709;28;20048;-86
2022/05/17 13:31:04;;;;;;;6.32;2.03;;;28.60;90.00;;;;;;5060598;28;20441;-87
2022/05/17 13:33:34;;;;;;;6.40;2.03;;;28.60;88.60;;;;;;5066147;28;20053;-84